Medburyville, Vermont
Current Conditions -  °F | °C
As of 2:54 PM on Thursday 23 Oct 2014 (Local Time) from KDDH Reporting Station
Overcast Overcast  
Wind Chill:   Ceiling: 1100
Heat Index:   Visibility: 10mi
Dew Point:   Wind: 8mph
Humidity: 90%   Direction: 330°NNW
Pressure: 29.78"   Gusts: NA
Location:  42.883°N, 72.8981°W
Report Text: KDDH 231854Z AUTO 33007KT 10SM OVC011 07/06 A2978 RMK AO2 SLP087 T00720056
Loading
Personal Weather Stations






























Interactive Weather Map
Tropical Storm Tracking
New forecast layout! Learn more

10-Day Weather Forecast

Advertisements
Track Severe Weather on mobile